Time;durP1;ratioP1;P1;durP2;ratioP2;P2;SDS_P1;SDS_P2;PMS_P1;PMS_P2;Temp;Humidity;BMP_temperature;BMP_pressure;BME280_temperature;BME280_humidity;BME280_pressure;Samples;Min_cycle;Max_cycle;Signal;HPM_P1;HPM_P2
2023/11/28 00:02:25;;;;;;;1.97;1.80;;;2.50;99.90;;;3.31;100.00;95660.25;5015439;28;20540;-77
2023/11/28 00:04:54;;;;;;;3.27;2.00;;;2.40;99.90;;;3.35;100.00;95663.22;5014936;28;20831;-77
2023/11/28 00:07:22;;;;;;;3.23;2.00;;;2.40;99.90;;;3.38;100.00;95662.81;5014772;28;20466;-78
2023/11/28 00:09:52;;;;;;;2.70;1.50;;;2.60;99.90;;;3.37;100.00;95656.84;5014966;28;20513;-77
2023/11/28 00:12:21;;;;;;;1.80;1.60;;;2.50;99.90;;;3.40;100.00;95661.63;5015918;28;20473;-77
2023/11/28 00:14:49;;;;;;;2.00;1.70;;;2.60;99.90;;;3.35;100.00;95653.69;5013521;28;20555;-78
2023/11/28 00:17:18;;;;;;;2.10;1.70;;;2.60;99.90;;;3.39;100.00;95659.25;5015354;28;20511;-77
2023/11/28 00:19:46;;;;;;;2.27;1.90;;;2.60;99.90;;;3.42;100.00;95659.66;5016102;28;20549;-77
2023/11/28 00:22:15;;;;;;;1.80;1.70;;;2.60;99.90;;;3.45;100.00;95653.28;5015311;28;20467;-77
2023/11/28 00:24:43;;;;;;;1.90;1.67;;;2.60;99.90;;;3.44;100.00;95644.72;5014967;28;20540;-77
2023/11/28 00:27:13;;;;;;;2.73;1.73;;;2.60;99.90;;;3.45;100.00;95648.91;5015265;28;20454;-77
2023/11/28 00:29:41;;;;;;;2.17;1.77;;;2.60;99.90;;;3.46;100.00;95647.13;5016875;28;20461;-77
2023/11/28 00:32:10;;;;;;;2.33;1.97;;;2.60;99.90;;;3.44;100.00;95644.72;5015109;28;20548;-77
2023/11/28 00:34:39;;;;;;;3.00;1.83;;;2.60;99.90;;;3.45;100.00;95643.75;5015187;28;20477;-77
2023/11/28 00:37:08;;;;;;;2.73;2.00;;;2.60;99.90;;;3.46;100.00;95650.50;5014985;28;20497;-77
2023/11/28 00:39:37;;;;;;;2.20;1.77;;;2.60;99.90;;;3.47;100.00;95641.72;5015418;28;20462;-77
2023/11/28 00:42:06;;;;;;;2.50;2.07;;;2.60;99.90;;;3.43;100.00;95643.16;5014994;28;21069;-76
2023/11/28 00:44:35;;;;;;;2.03;1.30;;;2.60;99.90;;;3.43;100.00;95629.44;5017186;28;20470;-77
2023/11/28 00:47:04;;;;;;;4.40;1.77;;;2.60;99.90;;;3.42;100.00;95633.81;5015490;28;20473;-78
2023/11/28 00:49:33;;;;;;;2.30;1.57;;;2.60;99.90;;;3.42;100.00;95633.81;5013472;28;20466;-79
2023/11/28 00:52:02;;;;;;;2.00;1.40;;;2.60;99.90;;;3.39;100.00;95626.47;5016029;28;20477;-78
2023/11/28 00:54:30;;;;;;;2.43;1.37;;;2.60;99.90;;;3.41;100.00;95627.06;5014848;28;21225;-77
2023/11/28 00:56:58;;;;;;;2.23;1.40;;;2.60;99.90;;;3.39;100.00;95629.06;5013498;28;20506;-77
2023/11/28 00:59:27;;;;;;;1.83;1.23;;;2.60;99.90;;;3.40;100.00;95633.22;5015008;28;20814;-77
2023/11/28 01:01:57;;;;;;;2.30;1.50;;;2.60;99.90;;;3.40;100.00;95632.44;5013899;28;20839;-77
2023/11/28 01:04:25;;;;;;;1.40;1.30;;;2.60;99.90;;;3.39;100.00;95634.22;5014101;28;21048;-77
2023/11/28 01:06:55;;;;;;;1.13;1.03;;;2.50;99.90;;;3.43;100.00;95635.41;5015020;28;20497;-78
2023/11/28 01:09:24;;;;;;;1.93;1.10;;;2.60;99.90;;;3.46;100.00;95640.16;5015315;28;20472;-77
2023/11/28 01:11:52;;;;;;;1.30;1.20;;;2.60;99.90;;;3.45;100.00;95643.75;5015321;28;20948;-77
2023/11/28 01:14:21;;;;;;;2.10;1.40;;;2.60;99.90;;;3.44;100.00;95639.56;5017266;28;20469;-77
2023/11/28 01:16:49;;;;;;;1.50;1.13;;;2.70;99.90;;;3.45;100.00;95640.34;5022673;28;20472;-77
2023/11/28 01:19:19;;;;;;;1.43;1.10;;;2.70;99.90;;;3.45;100.00;95659.25;5015637;28;20466;-77
2023/11/28 01:21:47;;;;;;;1.30;1.17;;;2.70;99.90;;;3.47;100.00;95649.47;5015476;28;20520;-78
2023/11/28 01:24:16;;;;;;;2.27;1.30;;;2.80;99.90;;;3.51;100.00;95655.03;5016538;28;20855;-77
2023/11/28 01:26:44;;;;;;;1.30;1.20;;;2.80;99.90;;;3.55;100.00;95643.31;5013791;28;21139;-77
2023/11/28 01:29:13;;;;;;;1.57;1.43;;;2.80;99.90;;;3.57;100.00;95656.84;5015202;28;20998;-77
2023/11/28 01:31:41;;;;;;;1.40;1.23;;;2.80;99.90;;;3.56;100.00;95657.81;5016289;28;20478;-77
2023/11/28 01:34:10;;;;;;;1.23;1.13;;;2.80;99.90;;;3.57;100.00;95656.84;5015390;28;20482;-77
2023/11/28 01:36:46;;;;;;;1.60;1.40;;;2.70;99.90;;;3.57;100.00;95651.66;5017336;28;20485;-77
2023/11/28 01:39:15;;;;;;;1.97;1.40;;;2.70;99.90;;;3.57;100.00;95656.03;5018373;28;20464;-76
2023/11/28 01:41:47;;;;;;;1.73;1.60;;;2.80;99.90;;;3.57;100.00;95662.00;5016969;28;20477;-77
2023/11/28 01:44:16;;;;;;;2.23;1.80;;;2.90;99.90;;;3.58;100.00;95661.00;5018449;28;21003;-77
2023/11/28 01:46:45;;;;;;;2.70;1.67;;;2.90;99.90;;;3.62;100.00;95657.00;5019536;28;20462;-77
2023/11/28 01:49:14;;;;;;;3.20;1.90;;;2.90;99.90;;;3.61;100.00;95663.16;5017430;28;20471;-77
2023/11/28 01:51:43;;;;;;;1.60;1.50;;;2.90;99.90;;;3.63;100.00;95660.38;5017368;28;21007;-77
2023/11/28 01:54:13;;;;;;;1.87;1.40;;;2.80;99.90;;;3.58;100.00;95670.53;5017126;28;20979;-77
2023/11/28 01:56:43;;;;;;;1.30;1.20;;;2.80;99.90;;;3.57;100.00;95669.75;5016661;28;20960;-77
2023/11/28 01:59:14;;;;;;;1.37;1.17;;;2.80;99.90;;;3.57;100.00;95672.34;5019666;28;20554;-77
2023/11/28 02:01:44;;;;;;;3.30;1.37;;;2.70;99.90;;;3.55;100.00;95679.47;5017092;28;20520;-77
2023/11/28 02:04:13;;;;;;;1.33;1.20;;;2.80;99.90;;;3.58;100.00;95680.84;5018241;28;20963;-79
2023/11/28 02:06:42;;;;;;;2.30;1.50;;;2.80;99.90;;;3.53;100.00;95689.22;5020663;28;20462;-78
2023/11/28 02:09:12;;;;;;;1.30;1.20;;;2.90;99.90;;;3.55;100.00;95687.22;5017462;28;20469;-77
2023/11/28 02:11:40;;;;;;;1.80;1.43;;;2.80;99.90;;;3.57;100.00;95689.63;5016896;28;20466;-78
2023/11/28 02:14:09;;;;;;;1.43;1.33;;;2.80;99.90;;;3.58;100.00;95696.34;5016297;28;20590;-77
2023/11/28 02:16:38;;;;;;;1.47;0.93;;;2.80;99.90;;;3.55;100.00;95694.97;5018023;28;20466;-77
2023/11/28 02:19:07;;;;;;;1.23;1.10;;;2.80;99.90;;;3.61;100.00;95698.56;5017837;28;20502;-77
2023/11/28 02:21:35;;;;;;;1.93;1.20;;;2.90;99.90;;;3.59;100.00;95691.00;5018092;28;20568;-77
2023/11/28 02:24:07;;;;;;;1.17;1.07;;;3.10;99.90;;;3.62;100.00;95694.97;5016546;28;20542;-77
2023/11/28 02:26:37;;;;;;;1.33;1.00;;;3.10;99.90;;;3.71;100.00;95691.19;5019284;28;20555;-77
2023/11/28 02:29:05;;;;;;;1.60;1.50;;;3.20;99.90;;;3.80;100.00;95695.94;5016220;28;20477;-76
2023/11/28 02:31:35;;;;;;;1.27;1.17;;;3.30;99.90;;;3.87;100.00;95690.75;5018457;28;21136;-77
2023/11/28 02:34:04;;;;;;;1.20;1.10;;;3.30;99.90;;;3.92;100.00;95699.47;5014883;28;20473;-79
2023/11/28 02:36:33;;;;;;;4.27;2.60;;;3.40;99.90;;;3.95;100.00;95706.03;5016655;28;20471;-77
2023/11/28 02:39:02;;;;;;;1.63;1.23;;;3.40;99.90;;;3.97;100.00;95704.03;5017125;28;20563;-76
2023/11/28 02:41:30;;;;;;;1.43;1.17;;;3.50;99.90;;;4.02;100.00;95715.38;5015296;28;20462;-77
2023/11/28 02:44:01;;;;;;;1.17;1.00;;;3.60;99.90;;;4.02;100.00;95723.13;5017648;28;20826;-78
2023/11/28 02:46:30;;;;;;;1.23;1.13;;;3.60;99.90;;;4.05;100.00;95719.31;5027302;28;20458;-76
2023/11/28 02:48:59;;;;;;;0.93;0.93;;;3.60;99.90;;;4.10;100.00;95734.22;5017136;28;20870;-77
2023/11/28 02:51:27;;;;;;;1.27;0.90;;;3.60;99.90;;;4.11;100.00;95734.03;5017857;28;20494;-77
2023/11/28 02:53:55;;;;;;;1.20;1.00;;;3.50;99.90;;;4.11;100.00;95738.41;5018105;28;20457;-78
2023/11/28 02:56:24;;;;;;;1.33;1.00;;;3.60;99.90;;;4.09;100.00;95732.66;5014879;28;20477;-77
2023/11/28 02:58:54;;;;;;;37.53;15.97;;;3.60;99.90;;;4.03;100.00;95745.38;5012595;28;20490;-76
2023/11/28 03:01:24;;;;;;;1.00;0.90;;;3.60;99.90;;;3.98;100.00;95749.56;5014521;28;20465;-77
2023/11/28 03:03:52;;;;;;;1.00;0.90;;;3.60;99.90;;;3.94;100.00;95744.00;5015037;28;20932;-77
2023/11/28 03:06:21;;;;;;;0.70;0.70;;;3.50;99.90;;;3.91;100.00;95757.34;5018723;28;20569;-78
2023/11/28 03:08:49;;;;;;;1.00;0.90;;;3.40;99.90;;;3.90;100.00;95763.50;5016696;28;20455;-78
2023/11/28 03:11:18;;;;;;;0.80;0.80;;;3.40;99.90;;;3.89;100.00;95768.88;5017528;28;20836;-77
2023/11/28 03:13:46;;;;;;;0.70;0.70;;;3.30;99.90;;;3.88;100.00;95772.47;5019669;28;20466;-77
2023/11/28 03:16:15;;;;;;;0.73;0.60;;;3.40;99.90;;;3.84;100.00;95781.59;5017642;28;20552;-82
2023/11/28 03:18:44;;;;;;;0.70;0.70;;;3.30;99.90;;;3.79;100.00;95787.38;5018095;28;21107;-78
2023/11/28 03:21:13;;;;;;;0.70;0.70;;;3.40;99.90;;;3.75;100.00;95788.00;5017955;28;20469;-77
2023/11/28 03:23:41;;;;;;;1.20;0.70;;;3.40;99.90;;;3.81;100.00;95792.34;5014651;28;21415;-77
2023/11/28 03:26:10;;;;;;;0.77;0.70;;;3.30;99.90;;;3.78;100.00;95797.94;5014913;28;21011;-78
2023/11/28 03:28:38;;;;;;;0.80;0.70;;;3.30;99.90;;;3.76;100.00;95810.22;5018023;28;20505;-77
2023/11/28 03:31:08;;;;;;;0.90;0.70;;;3.30;99.90;;;3.76;100.00;95807.66;5016313;28;20458;-77
2023/11/28 03:33:36;;;;;;;1.50;1.30;;;3.20;99.90;;;3.70;100.00;95813.63;5012140;28;20488;-76
2023/11/28 03:36:15;;;;;;;0.87;0.80;;;3.30;99.90;;;3.64;100.00;95817.00;5018741;28;20461;-77
2023/11/28 03:38:46;;;;;;;1.20;0.77;;;3.30;99.90;;;3.66;100.00;95822.75;5013638;28;20503;-77
2023/11/28 03:41:15;;;;;;;0.70;0.60;;;3.20;99.90;;;3.58;100.00;95822.94;5018124;28;20842;-78
2023/11/28 03:43:44;;;;;;;0.70;0.60;;;3.10;99.90;;;3.54;100.00;95835.47;5016661;28;20473;-79
2023/11/28 03:46:12;;;;;;;1.07;0.70;;;3.20;99.90;;;3.58;100.00;95841.03;5015530;28;20536;-78
2023/11/28 03:48:41;;;;;;;0.70;0.60;;;3.10;99.90;;;3.54;100.00;95841.44;5015947;28;20466;-78
2023/11/28 03:51:10;;;;;;;0.70;0.60;;;3.00;99.90;;;3.43;100.00;95852.38;5016827;28;20460;-78
2023/11/28 03:53:39;;;;;;;0.70;0.70;;;3.10;99.90;;;3.48;100.00;95860.31;5014655;28;20878;-78
2023/11/28 03:56:09;;;;;;;1.10;0.87;;;3.00;99.90;;;3.54;100.00;95849.19;5016656;28;20461;-78
2023/11/28 03:58:38;;;;;;;1.03;0.70;;;2.90;99.90;;;3.45;100.00;95862.50;5014988;28;20504;-78
2023/11/28 04:01:07;;;;;;;0.70;0.70;;;3.00;99.90;;;3.45;100.00;95873.63;5014230;28;20466;-77
2023/11/28 04:03:35;;;;;;;0.97;0.87;;;3.00;99.90;;;3.46;100.00;95882.97;5015368;28;20489;-78
2023/11/28 04:06:04;;;;;;;0.80;0.80;;;2.90;99.90;;;3.39;100.00;95887.34;5015821;28;20461;-77
2023/11/28 04:08:34;;;;;;;0.80;0.80;;;3.00;99.90;;;3.41;100.00;95897.44;5013264;28;21064;-78
2023/11/28 04:11:04;;;;;;;6.30;3.00;;;3.00;99.90;;;3.37;100.00;95902.22;5014415;28;20977;-78
2023/11/28 04:13:32;;;;;;;0.80;0.80;;;2.90;99.90;;;3.28;100.00;95911.13;5015603;28;20462;-78
2023/11/28 04:16:01;;;;;;;0.70;0.70;;;2.80;99.90;;;3.29;100.00;95917.91;5022070;28;20473;-77
2023/11/28 04:18:31;;;;;;;0.90;0.90;;;2.80;99.90;;;3.20;100.00;95907.91;5015338;28;20480;-78
2023/11/28 04:20:59;;;;;;;0.70;0.70;;;2.80;99.90;;;3.16;100.00;95912.66;5012612;28;20834;-77
2023/11/28 04:23:28;;;;;;;3.23;0.73;;;2.80;99.90;;;3.13;100.00;95928.56;5015044;28;20464;-77
2023/11/28 04:25:58;;;;;;;1.00;0.80;;;2.80;99.90;;;3.12;100.00;95924.41;5013215;28;20507;-77
2023/11/28 04:28:28;;;;;;;0.70;0.70;;;2.70;99.90;;;3.12;100.00;95936.50;5014788;28;20474;-78
2023/11/28 04:30:57;;;;;;;0.80;0.70;;;2.80;99.90;;;3.01;100.00;95938.66;5013185;28;21034;-78
2023/11/28 04:33:25;;;;;;;0.70;0.70;;;2.50;99.90;;;2.93;100.00;95945.75;5014622;28;20469;-79
2023/11/28 04:35:57;;;;;;;16.47;7.77;;;2.60;99.90;;;2.93;100.00;95949.13;5014813;28;20470;-76
2023/11/28 04:38:25;;;;;;;0.80;0.80;;;2.60;99.90;;;2.92;100.00;95954.47;5011984;28;20465;-78
2023/11/28 04:40:54;;;;;;;1.00;0.80;;;2.60;99.90;;;2.87;100.00;95956.84;5016805;28;20468;-78
2023/11/28 04:43:24;;;;;;;0.73;0.73;;;2.50;99.90;;;2.86;100.00;95955.25;5014944;28;20467;-78
2023/11/28 04:45:52;;;;;;;0.70;0.70;;;2.50;99.90;;;2.85;100.00;95957.00;5015832;28;20874;-78
2023/11/28 04:48:21;;;;;;;0.70;0.70;;;2.50;99.90;;;2.83;100.00;95965.94;5015673;28;20525;-78
2023/11/28 04:50:50;;;;;;;0.80;0.70;;;2.50;99.90;;;2.79;100.00;95964.72;5013739;28;20863;-78
2023/11/28 04:53:18;;;;;;;3.17;0.87;;;2.50;99.90;;;2.73;100.00;95970.66;5014434;28;20489;-78
2023/11/28 04:55:46;;;;;;;0.80;0.70;;;2.50;99.90;;;2.76;100.00;95975.44;5013292;28;21110;-77
2023/11/28 04:58:15;;;;;;;0.70;0.70;;;2.30;99.90;;;2.73;100.00;95978.41;5015130;28;20466;-77
2023/11/28 05:00:45;;;;;;;0.80;0.73;;;2.30;99.90;;;2.70;100.00;95987.31;5014829;28;20490;-78
2023/11/28 05:03:14;;;;;;;1.23;0.80;;;2.30;99.90;;;2.70;100.00;95983.94;5014800;28;20470;-77
2023/11/28 05:05:43;;;;;;;0.90;0.70;;;2.30;99.90;;;2.68;100.00;96003.94;5015375;28;20899;-77
2023/11/28 05:08:12;;;;;;;0.70;0.70;;;2.30;99.90;;;2.70;100.00;96007.16;5014702;28;20463;-77
2023/11/28 05:10:40;;;;;;;0.70;0.70;;;2.30;99.90;;;2.70;100.00;96017.47;5013975;28;20974;-77
2023/11/28 05:13:10;;;;;;;1.27;0.90;;;2.30;99.90;;;2.70;100.00;96020.06;5016318;28;20994;-77
2023/11/28 05:15:39;;;;;;;0.70;0.70;;;2.30;99.90;;;2.67;100.00;96033.34;5016271;28;20981;-77
2023/11/28 05:18:08;;;;;;;0.90;0.80;;;2.30;99.90;;;2.63;100.00;96045.81;5017442;28;20476;-77
2023/11/28 05:20:37;;;;;;;0.70;0.70;;;2.30;99.90;;;2.70;100.00;96038.91;5016378;28;20530;-77
2023/11/28 05:23:05;;;;;;;0.80;0.80;;;2.30;99.90;;;2.66;100.00;96042.03;5015859;28;21007;-78
2023/11/28 05:25:34;;;;;;;0.80;0.70;;;2.30;99.90;;;2.65;100.00;96041.25;5016780;28;20500;-78
2023/11/28 05:28:02;;;;;;;0.80;0.80;;;2.20;99.90;;;2.69;100.00;96041.66;5015716;28;20539;-77
2023/11/28 05:30:31;;;;;;;0.70;0.70;;;2.20;99.90;;;2.71;100.00;96044.88;5019470;28;20477;-77
2023/11/28 05:32:59;;;;;;;3.93;2.70;;;2.20;99.90;;;2.66;100.00;96050.59;5012544;28;20498;-76
2023/11/28 05:35:29;;;;;;;1.63;1.00;;;2.30;99.90;;;2.64;100.00;96057.69;5015079;28;20534;-78
2023/11/28 05:37:58;;;;;;;1.37;0.77;;;2.40;99.90;;;2.60;100.00;96069.41;5019523;28;20959;-77
2023/11/28 05:40:26;;;;;;;0.90;0.80;;;2.20;99.90;;;2.59;100.00;96069.56;5021030;28;20495;-77
2023/11/28 05:42:55;;;;;;;0.70;0.70;;;2.20;99.90;;;2.56;100.00;96075.91;5019414;28;20463;-77
2023/11/28 05:45:26;;;;;;;0.90;0.80;;;2.10;99.90;;;2.53;100.00;96074.47;5025238;28;20462;-77
2023/11/28 05:47:54;;;;;;;0.70;0.70;;;2.10;99.90;;;2.59;100.00;96082.47;5025776;28;20464;-77
2023/11/28 05:50:23;;;;;;;1.20;0.70;;;2.10;99.90;;;2.60;100.00;96086.66;5021711;28;20463;-77
2023/11/28 05:52:54;;;;;;;0.70;0.70;;;2.20;99.90;;;2.61;100.00;96101.13;5019469;28;20493;-77
2023/11/28 05:55:22;;;;;;;1.00;0.90;;;2.20;99.90;;;2.61;100.00;96096.78;5019591;28;20826;-76
2023/11/28 05:57:51;;;;;;;1.43;0.70;;;2.20;99.90;;;2.60;100.00;96104.72;5022058;28;20464;-77
2023/11/28 06:00:20;;;;;;;1.03;0.80;;;2.10;99.90;;;2.53;100.00;96118.31;5019091;28;20506;-77
2023/11/28 06:02:48;;;;;;;0.80;0.80;;;2.10;99.90;;;2.58;100.00;96129.88;5020927;28;21107;-77
2023/11/28 06:05:17;;;;;;;0.70;0.70;;;2.10;99.90;;;2.49;100.00;96132.59;5018524;28;20466;-76
2023/11/28 06:07:46;;;;;;;0.80;0.73;;;2.00;99.90;;;2.50;100.00;96147.06;5020001;28;20466;-77
2023/11/28 06:10:16;;;;;;;0.70;0.70;;;2.10;99.90;;;2.49;100.00;96163.53;5020888;28;20549;-76
2023/11/28 06:12:44;;;;;;;0.70;0.70;;;2.10;99.90;;;2.51;100.00;96166.72;5020759;28;20479;-77
2023/11/28 06:15:13;;;;;;;0.90;0.70;;;2.00;99.90;;;2.40;100.00;96172.34;5020984;28;20902;-77
2023/11/28 06:17:41;;;;;;;0.80;0.73;;;1.90;99.90;;;2.42;100.00;96178.16;5021105;28;20524;-77
2023/11/28 06:20:15;;;;;;;0.70;0.70;;;1.90;99.90;;;2.45;100.00;96180.38;5021382;28;20564;-77
2023/11/28 06:22:45;;;;;;;0.80;0.70;;;2.00;99.90;;;2.47;100.00;96186.13;5019230;28;20945;-77
2023/11/28 06:25:15;;;;;;;0.90;0.80;;;1.90;99.90;;;2.47;100.00;96190.47;5020423;28;20965;-76
2023/11/28 06:27:44;;;;;;;0.70;0.70;;;1.90;99.90;;;2.44;100.00;96201.97;5021871;28;20463;-77
2023/11/28 06:30:14;;;;;;;1.20;1.10;;;1.90;99.90;;;2.38;100.00;96207.84;5020488;28;20464;-77
2023/11/28 06:32:42;;;;;;;1.20;0.80;;;2.00;99.90;;;2.36;100.00;96211.59;5021666;28;20469;-77
2023/11/28 06:35:11;;;;;;;0.80;0.80;;;1.90;99.90;;;2.39;100.00;96227.53;5018715;28;20470;-77
2023/11/28 06:37:40;;;;;;;0.80;0.80;;;1.90;99.90;;;2.38;100.00;96232.84;5021186;28;20573;-77
2023/11/28 06:40:09;;;;;;;1.13;1.00;;;2.00;99.90;;;2.37;100.00;96238.97;5018901;28;20504;-77
2023/11/28 06:42:39;;;;;;;0.87;0.80;;;2.00;99.90;;;2.36;100.00;96250.28;5020379;28;20542;-77
2023/11/28 06:45:08;;;;;;;1.00;0.90;;;1.90;99.90;;;2.33;100.00;96259.16;5018767;28;20486;-76
2023/11/28 06:47:37;;;;;;;0.80;0.80;;;1.90;99.90;;;2.37;100.00;96268.16;5018413;28;20454;-77
2023/11/28 06:50:07;;;;;;;1.00;0.90;;;2.00;99.90;;;2.39;100.00;96281.69;5017978;28;20595;-77
2023/11/28 06:52:36;;;;;;;1.00;0.90;;;2.00;99.90;;;2.45;100.00;96280.94;5020540;28;20489;-77
2023/11/28 06:55:07;;;;;;;0.80;0.80;;;2.00;99.90;;;2.45;100.00;96291.25;5019302;28;20476;-77
2023/11/28 06:57:35;;;;;;;1.00;0.90;;;2.10;99.90;;;2.39;100.00;96296.34;5018613;28;20520;-77
2023/11/28 07:00:09;;;;;;;1.17;1.07;;;1.80;99.90;;;2.43;100.00;96313.06;5017550;28;20526;-78
2023/11/28 07:02:37;;;;;;;2.70;1.10;;;1.90;99.90;;;2.39;100.00;96317.78;5021535;28;20499;-78
2023/11/28 07:05:07;;;;;;;1.23;0.97;;;2.00;99.90;;;2.37;100.00;96319.72;5019503;28;20545;-77
2023/11/28 07:07:36;;;;;;;0.90;0.90;;;1.90;99.90;;;2.35;100.00;96324.25;5018869;28;20462;-77
2023/11/28 07:10:08;;;;;;;1.30;1.10;;;1.80;99.90;;;2.35;100.00;96338.94;5018358;28;20929;-78
2023/11/28 07:12:37;;;;;;;1.10;1.00;;;1.90;99.90;;;2.35;100.00;96347.47;5021122;28;20473;-78
2023/11/28 07:15:09;;;;;;;1.00;0.90;;;1.90;99.90;;;2.32;100.00;96352.19;5023458;28;20490;-78
2023/11/28 07:17:38;;;;;;;1.20;1.10;;;1.80;99.90;;;2.36;100.00;96359.38;5028737;28;20515;-78
2023/11/28 07:20:09;;;;;;;1.07;0.97;;;1.80;99.90;;;2.33;100.00;96364.09;5020036;28;20558;-77
2023/11/28 07:22:39;;;;;;;1.10;1.10;;;1.80;99.90;;;2.32;100.00;96378.78;5018440;28;20503;-77
2023/11/28 07:25:09;;;;;;;1.20;1.10;;;1.80;99.90;;;2.41;100.00;96382.88;5018010;28;20467;-78
2023/11/28 07:27:37;;;;;;;1.83;1.73;;;1.90;99.90;;;2.35;100.00;96391.31;5018714;28;20463;-77
2023/11/28 07:30:10;;;;;;;1.20;1.10;;;1.80;99.90;;;2.37;100.00;96404.00;5018485;28;20506;-77
2023/11/28 07:32:38;;;;;;;1.40;1.30;;;1.80;99.90;;;2.34;100.00;96402.59;5018029;28;20466;-77
2023/11/28 07:35:08;;;;;;;1.17;1.07;;;1.90;99.90;;;2.38;100.00;96414.16;5018673;28;20509;-77
2023/11/28 07:37:38;;;;;;;1.20;1.10;;;2.00;99.90;;;2.37;100.00;96422.88;5017203;28;21028;-77
2023/11/28 07:40:10;;;;;;;1.10;1.00;;;2.00;99.90;;;2.42;100.00;96424.94;5017347;28;20498;-77
2023/11/28 07:42:39;;;;;;;1.33;1.23;;;1.90;99.90;;;2.32;100.00;96429.53;5017197;28;20885;-77
2023/11/28 07:45:10;;;;;;;1.73;1.20;;;1.90;99.90;;;2.25;100.00;96429.44;5017944;28;20466;-78
2023/11/28 07:47:38;;;;;;;1.43;1.33;;;1.80;99.90;;;2.33;100.00;96437.09;5015626;28;20459;-77
2023/11/28 07:50:08;;;;;;;1.30;1.20;;;1.80;99.90;;;2.38;100.00;96445.13;5018160;28;20475;-78
2023/11/28 07:52:37;;;;;;;1.50;1.33;;;1.80;99.90;;;2.32;100.00;96456.13;5017759;28;20573;-77
2023/11/28 07:55:08;;;;;;;1.30;1.13;;;1.80;99.90;;;2.26;100.00;96441.34;5018439;28;20478;-78
2023/11/28 07:57:37;;;;;;;1.40;1.30;;;1.70;99.90;;;2.26;100.00;96433.59;5018262;28;20469;-77
2023/11/28 08:00:09;;;;;;;1.60;1.50;;;1.80;99.90;;;2.19;100.00;96449.94;5018765;28;20463;-77
2023/11/28 08:02:38;;;;;;;1.30;1.20;;;1.70;99.90;;;2.26;100.00;96456.00;5017664;28;20522;-77
2023/11/28 08:05:07;;;;;;;1.20;1.10;;;1.80;99.90;;;2.20;100.00;96454.94;5019372;28;20505;-78
2023/11/28 08:07:36;;;;;;;1.90;1.33;;;1.70;99.90;;;2.25;100.00;96475.06;5017258;28;20557;-78
2023/11/28 08:10:10;;;;;;;1.30;1.20;;;1.80;99.90;;;2.28;100.00;96483.25;5015826;28;20482;-78
2023/11/28 08:12:39;;;;;;;1.30;1.20;;;1.90;99.90;;;2.26;100.00;96481.78;5017642;28;20462;-77
2023/11/28 08:15:12;;;;;;;1.30;1.20;;;1.90;99.90;;;2.28;100.00;96490.16;5017284;28;20467;-77
2023/11/28 08:17:41;;;;;;;1.50;1.40;;;1.80;99.90;;;2.28;100.00;96485.81;5015937;28;20517;-77
2023/11/28 08:20:12;;;;;;;1.47;1.37;;;1.80;99.90;;;2.32;100.00;96499.97;5017948;28;21269;-78
2023/11/28 08:22:40;;;;;;;1.50;1.40;;;1.90;99.90;;;2.34;100.00;96505.75;5017662;28;20533;-77
2023/11/28 08:25:09;;;;;;;1.17;1.07;;;1.90;99.90;;;2.32;100.00;96523.19;5017801;28;20461;-77
2023/11/28 08:27:38;;;;;;;1.40;1.30;;;1.80;99.90;;;2.20;100.00;96529.72;5017273;28;21017;-78
2023/11/28 08:30:10;;;;;;;1.50;1.40;;;1.80;99.90;;;2.15;100.00;96538.94;5016244;28;20456;-77
2023/11/28 08:32:42;;;;;;;1.23;1.13;;;1.70;99.90;;;2.17;100.00;96545.53;5015384;28;20480;-78
2023/11/28 08:35:11;;;;;;;1.40;1.30;;;1.70;99.90;;;2.15;100.00;96550.06;5015807;28;20489;-77
2023/11/28 08:37:39;;;;;;;5.50;1.40;;;1.60;99.90;;;2.17;100.00;96560.19;5016257;28;20471;-77
2023/11/28 08:40:10;;;;;;;1.90;1.73;;;1.70;99.90;;;2.24;100.00;96561.91;5014931;28;20472;-77
2023/11/28 08:42:39;;;;;;;2.10;1.90;;;1.70;99.90;;;2.19;100.00;96560.81;5017132;28;20582;-77
2023/11/28 08:45:10;;;;;;;2.00;1.73;;;1.70;99.90;;;2.15;100.00;96562.16;5015826;28;20871;-77
2023/11/28 08:47:39;;;;;;;2.07;1.87;;;1.80;99.90;;;2.21;100.00;96571.75;5025854;28;20454;-77
2023/11/28 08:50:09;;;;;;;1.60;1.50;;;1.80;99.90;;;2.19;100.00;96577.06;5023937;28;20863;-77
2023/11/28 08:52:38;;;;;;;2.40;2.10;;;1.80;99.90;;;2.19;100.00;96579.66;5018272;28;20467;-77
2023/11/28 08:55:07;;;;;;;1.70;1.53;;;1.80;99.90;;;2.21;100.00;96590.63;5015430;28;21008;-77
2023/11/28 08:57:36;;;;;;;1.80;1.70;;;1.80;99.90;;;2.27;100.00;96602.81;5017762;28;20478;-77
2023/11/28 09:00:06;;;;;;;1.63;1.53;;;1.90;99.90;;;2.29;100.00;96605.25;5017058;28;20494;-77
2023/11/28 09:02:37;;;;;;;1.80;1.70;;;1.70;99.90;;;2.26;100.00;96611.53;5017279;28;21131;-77
2023/11/28 09:05:07;;;;;;;2.37;2.17;;;1.60;99.90;;;2.24;100.00;96616.06;5016340;28;20467;-77
2023/11/28 09:07:36;;;;;;;2.40;1.73;;;1.70;99.90;;;2.30;100.00;96623.09;5017902;28;20557;-77
2023/11/28 09:10:07;;;;;;;1.70;1.60;;;1.70;99.90;;;2.37;100.00;96629.19;5019386;28;20481;-77
2023/11/28 09:12:36;;;;;;;1.50;1.40;;;1.80;99.90;;;2.35;100.00;96631.16;5016665;28;20478;-77
2023/11/28 09:15:05;;;;;;;2.13;2.03;;;1.90;99.90;;;2.37;100.00;96636.91;5018244;28;20816;-78
2023/11/28 09:17:36;;;;;;;2.03;1.90;;;1.90;99.90;;;2.39;100.00;96642.72;5018416;28;20477;-77
2023/11/28 09:20:05;;;;;;;1.80;1.70;;;1.90;99.90;;;2.39;100.00;96647.88;5017231;28;20949;-77
2023/11/28 09:22:34;;;;;;;3.40;2.10;;;1.90;99.90;;;2.41;100.00;96655.44;5017581;28;20498;-77
2023/11/28 09:25:03;;;;;;;2.53;2.27;;;1.90;99.90;;;2.43;100.00;96654.28;5014856;28;20536;-77
2023/11/28 09:27:31;;;;;;;2.07;1.87;;;2.00;99.90;;;2.46;100.00;96663.47;5015506;28;20466;-77
2023/11/28 09:30:00;;;;;;;2.50;2.30;;;2.10;99.90;;;2.49;100.00;96669.09;5016427;28;20461;-77
2023/11/28 09:32:28;;;;;;;2.27;2.00;;;2.00;99.90;;;2.45;100.00;96678.16;5014283;28;20932;-77
2023/11/28 09:34:58;;;;;;;3.20;1.90;;;1.90;99.90;;;2.45;100.00;96673.00;5017151;28;21038;-78
2023/11/28 09:37:27;;;;;;;2.40;2.20;;;1.90;99.90;;;2.46;100.00;96681.53;5015370;28;20479;-78
2023/11/28 09:39:55;;;;;;;2.53;2.10;;;2.00;99.90;;;2.49;100.00;96676.03;5016551;28;20909;-77
2023/11/28 09:42:32;;;;;;;2.40;2.20;;;1.90;99.90;;;2.49;100.00;96676.84;5016545;28;20533;-77
2023/11/28 09:45:05;;;;;;;3.63;2.60;;;1.90;99.90;;;2.56;100.00;96676.16;5017712;28;20462;-77
2023/11/28 09:47:38;;;;;;;2.37;2.17;;;2.00;99.90;;;2.56;100.00;96683.88;5016529;28;20521;-77
2023/11/28 09:50:12;;;;;;;2.40;2.20;;;1.90;99.90;;;2.54;100.00;96678.88;5016568;28;20524;-77
2023/11/28 09:52:43;;;;;;;2.63;2.43;;;2.10;99.90;;;2.59;100.00;96688.72;5017583;28;20468;-77
2023/11/28 09:55:16;;;;;;;2.87;2.13;;;2.10;99.90;;;2.60;100.00;96690.31;5016167;28;20452;-77
2023/11/28 09:57:48;;;;;;;2.33;2.03;;;2.10;99.90;;;2.64;100.00;96696.75;5019650;28;21000;-77
2023/11/28 10:00:20;;;;;;;3.13;2.50;;;2.10;99.90;;;2.62;100.00;96714.16;5020347;28;20491;-77
2023/11/28 10:02:53;;;;;;;2.20;2.00;;;2.10;99.90;;;2.56;100.00;96712.28;5019922;28;20503;-78
2023/11/28 10:05:23;;;;;;;1.97;1.87;;;2.00;99.90;;;2.54;100.00;96708.06;5019789;28;20473;-77
2023/11/28 10:07:56;;;;;;;2.33;2.13;;;2.00;99.90;;;2.57;100.00;96716.47;5019732;28;20490;-77
2023/11/28 10:10:25;;;;;;;2.60;1.87;;;2.00;99.90;;;2.60;100.00;96716.94;5020382;28;20502;-77
2023/11/28 10:12:55;;;;;;;2.00;1.73;;;2.00;99.90;;;2.64;100.00;96722.56;5020001;28;20485;-77
2023/11/28 10:15:25;;;;;;;2.10;1.90;;;2.30;99.90;;;2.65;100.00;96721.56;5019948;28;20504;-77
2023/11/28 10:17:55;;;;;;;3.17;2.17;;;2.20;99.90;;;2.66;100.00;96728.34;5021469;28;21026;-77
2023/11/28 10:20:27;;;;;;;2.93;2.00;;;2.20;99.90;;;2.67;100.00;96742.84;5025387;28;20486;-77
2023/11/28 10:22:56;;;;;;;2.23;2.10;;;2.20;99.90;;;2.66;100.00;96752.38;5019398;28;20486;-78
2023/11/28 10:25:27;;;;;;;1.80;1.70;;;2.30;99.90;;;2.67;100.00;96753.19;5016697;28;20478;-77
2023/11/28 10:27:59;;;;;;;4.37;1.83;;;2.10;99.90;;;2.69;100.00;96758.97;5018109;28;20475;-77
2023/11/28 10:30:28;;;;;;;2.30;2.03;;;2.20;99.90;;;2.72;100.00;96772.31;5018167;28;20472;-77
2023/11/28 10:33:00;;;;;;;4.00;2.20;;;2.20;99.90;;;2.74;100.00;96760.03;5019790;28;20468;-77
2023/11/28 10:35:42;;;;;;;4.83;2.40;;;2.30;99.90;;;2.81;100.00;96767.94;5018720;28;20477;-77